Time;durP1;ratioP1;P1;durP2;ratioP2;P2;SDS_P1;SDS_P2;PMS_P1;PMS_P2;Temp;Humidity;BMP_temperature;BMP_pressure;BME280_temperature;BME280_humidity;BME280_pressure;Samples;Min_cycle;Max_cycle;Signal;HPM_P1;HPM_P2
2023/04/07 00:00:56;;;;;;;30.63;13.67;;;;;0.10;96311.00;;;;8235857;28;20219;-70
2023/04/07 00:05:01;;;;;;;24.73;11.97;;;;;0.10;96313.00;;;;8244729;28;20838;-72
2023/04/07 00:09:10;;;;;;;26.07;12.73;;;;;0.00;96316.00;;;;8245610;28;20223;-71
2023/04/07 00:13:17;;;;;;;26.10;12.37;;;;;0.00;96308.00;;;;8244381;28;20851;-71
2023/04/07 00:17:20;;;;;;;25.60;12.77;;;;;0.10;96309.00;;;;8251206;28;20230;-72
2023/04/07 00:21:25;;;;;;;25.40;12.50;;;;;-0.10;96310.00;;;;8228031;28;20222;-72
2023/04/07 00:25:31;;;;;;;28.47;14.00;;;;;-0.10;96313.00;;;;8247502;28;20296;-73
2023/04/07 00:29:36;;;;;;;26.57;12.90;;;;;-0.20;96303.00;;;;8243061;28;20237;-73
2023/04/07 00:33:40;;;;;;;28.37;13.53;;;;;-0.30;96293.00;;;;8235639;28;20242;-73
2023/04/07 00:37:45;;;;;;;28.27;13.00;;;;;-0.30;96298.00;;;;8242330;28;20278;-73
2023/04/07 00:41:52;;;;;;;29.30;13.33;;;;;-0.40;96299.00;;;;8241982;28;20637;-73
2023/04/07 00:45:58;;;;;;;27.00;12.67;;;;;-0.40;96288.00;;;;8239309;28;20214;-71
2023/04/07 00:50:04;;;;;;;28.67;12.83;;;;;-0.40;96296.00;;;;8236947;28;20199;-72
2023/04/07 00:54:09;;;;;;;31.10;13.90;;;;;-0.40;96293.00;;;;8239284;28;20206;-73
2023/04/07 00:58:12;;;;;;;27.97;13.60;;;;;-0.40;96280.00;;;;8245869;28;20336;-73
2023/04/07 01:02:22;;;;;;;24.60;12.10;;;;;-0.50;96270.00;;;;8240363;28;20266;-73
2023/04/07 01:06:30;;;;;;;32.50;12.87;;;;;-0.60;96271.00;;;;8238556;28;20202;-71
2023/04/07 01:10:42;;;;;;;26.73;13.87;;;;;-0.60;96266.00;;;;8240262;28;20234;-72
2023/04/07 01:14:55;;;;;;;22.27;12.13;;;;;-0.50;96258.00;;;;8241638;28;20214;-72
2023/04/07 01:19:04;;;;;;;26.20;12.13;;;;;-0.50;96260.00;;;;8227847;28;20211;-73
2023/04/07 01:23:21;;;;;;;26.67;13.87;;;;;-0.40;96257.00;;;;8241863;28;20315;-73
2023/04/07 01:27:38;;;;;;;25.77;13.53;;;;;-0.40;96254.00;;;;8244449;28;20200;-71
2023/04/07 01:31:43;;;;;;;27.27;13.57;;;;;-0.40;96257.00;;;;8244902;28;20263;-70
2023/04/07 01:35:47;;;;;;;20.60;12.20;;;;;-0.40;96254.00;;;;8238746;28;20315;-71
2023/04/07 01:39:49;;;;;;;28.77;13.00;;;;;-0.40;96256.00;;;;8241178;28;20202;-71
2023/04/07 01:43:56;;;;;;;21.73;10.60;;;;;-0.40;96260.00;;;;8240162;28;20290;-70
2023/04/07 01:48:01;;;;;;;24.57;11.60;;;;;-0.50;96256.00;;;;8258671;28;20196;-72
2023/04/07 01:52:12;;;;;;;26.80;12.60;;;;;-0.60;96250.00;;;;8240101;28;20311;-73
2023/04/07 01:56:18;;;;;;;27.30;11.93;;;;;-0.60;96247.00;;;;8242238;28;20234;-72
2023/04/07 02:00:21;;;;;;;28.33;12.17;;;;;-0.60;96245.00;;;;8233034;28;20199;-72
2023/04/07 02:04:32;;;;;;;24.23;11.53;;;;;-0.60;96243.00;;;;8233504;28;20228;-70
2023/04/07 02:08:46;;;;;;;24.73;11.17;;;;;-0.60;96244.00;;;;8243281;28;20311;-71
2023/04/07 02:12:54;;;;;;;22.17;11.10;;;;;-0.60;96241.00;;;;8243104;28;20242;-72
2023/04/07 02:17:03;;;;;;;22.80;11.80;;;;;-0.70;96232.00;;;;8214435;28;20206;-72
2023/04/07 02:21:10;;;;;;;32.83;12.63;;;;;-0.70;96227.00;;;;8254791;28;20226;-72
2023/04/07 02:25:31;;;;;;;25.60;12.90;;;;;-0.80;96232.00;;;;8263028;28;20194;-72
2023/04/07 02:29:34;;;;;;;20.63;10.87;;;;;-0.80;96227.00;;;;8266467;28;20205;-71
2023/04/07 02:33:43;;;;;;;21.10;9.83;;;;;-0.90;96230.00;;;;8256361;28;20236;-72
2023/04/07 02:37:48;;;;;;;25.10;12.93;;;;;-0.90;96218.00;;;;8274482;28;20203;-71
2023/04/07 02:41:51;;;;;;;22.20;11.10;;;;;-0.90;96215.00;;;;8260709;28;20195;-71
2023/04/07 02:45:54;;;;;;;26.23;13.27;;;;;-0.90;96219.00;;;;8255307;28;20209;-73
2023/04/07 02:49:57;;;;;;;26.73;11.90;;;;;-0.90;96210.00;;;;8276000;28;20290;-73
2023/04/07 02:54:03;;;;;;;28.27;12.57;;;;;-0.90;96209.00;;;;8269749;28;20314;-72
2023/04/07 02:58:06;;;;;;;24.10;11.37;;;;;-1.00;96208.00;;;;8261049;28;20318;-71
2023/04/07 03:02:09;;;;;;;23.43;11.60;;;;;-0.90;96210.00;;;;8302583;23;20299;-72
2023/04/07 03:06:13;;;;;;;27.17;12.10;;;;;-0.90;96202.00;;;;8275793;28;20249;-74
2023/04/07 03:10:22;;;;;;;25.03;11.80;;;;;-0.80;96196.00;;;;8279184;28;20233;-74
2023/04/07 03:14:30;;;;;;;23.77;11.97;;;;;-0.70;96196.00;;;;8273229;28;20640;-74
2023/04/07 03:18:33;;;;;;;28.17;12.47;;;;;-0.70;96202.00;;;;8278514;28;20198;-74
2023/04/07 03:22:39;;;;;;;27.20;12.43;;;;;-0.70;96205.00;;;;8308681;28;20205;-73
2023/04/07 03:26:43;;;;;;;22.67;10.90;;;;;-0.70;96205.00;;;;8311327;28;20247;-73
2023/04/07 03:30:46;;;;;;;23.37;11.03;;;;;-0.80;96199.00;;;;8305737;28;20202;-74
2023/04/07 03:34:49;;;;;;;24.53;11.53;;;;;-0.80;96194.00;;;;8308337;28;20275;-74
2023/04/07 03:38:54;;;;;;;23.03;10.97;;;;;-1.00;96192.00;;;;8308645;28;21033;-74
2023/04/07 03:43:00;;;;;;;23.63;11.77;;;;;-1.10;96188.00;;;;8313048;28;20198;-74
2023/04/07 03:47:03;;;;;;;30.80;11.93;;;;;-1.10;96194.00;;;;8311771;28;20205;-73
2023/04/07 03:51:09;;;;;;;23.30;11.80;;;;;-1.10;96192.00;;;;8312521;28;20235;-73
2023/04/07 03:55:11;;;;;;;23.00;11.13;;;;;-1.10;96193.00;;;;8308486;28;20227;-73
2023/04/07 03:59:16;;;;;;;27.03;11.63;;;;;-1.10;96194.00;;;;8307859;28;20197;-72
2023/04/07 04:03:22;;;;;;;24.03;11.63;;;;;-1.10;96205.00;;;;8315192;28;20304;-71
2023/04/07 04:07:25;;;;;;;24.23;11.77;;;;;-1.10;96199.00;;;;8313961;28;20189;-73
2023/04/07 04:11:31;;;;;;;22.80;10.97;;;;;-1.10;96186.00;;;;8314611;28;20934;-70
2023/04/07 04:15:43;;;;;;;21.67;10.70;;;;;-1.20;96185.00;;;;8304061;28;20650;-73
2023/04/07 04:19:50;;;;;;;26.60;10.93;;;;;-1.30;96193.00;;;;8309384;28;20289;-73
2023/04/07 04:23:52;;;;;;;25.30;11.23;;;;;-1.40;96184.00;;;;8310956;28;20225;-72
2023/04/07 04:28:00;;;;;;;23.40;10.40;;;;;-1.40;96182.00;;;;8317451;28;20806;-72
2023/04/07 04:32:07;;;;;;;22.23;11.37;;;;;-1.40;96182.00;;;;8313615;28;20323;-74
2023/04/07 04:36:10;;;;;;;26.87;11.13;;;;;-1.40;96184.00;;;;8317895;28;20216;-71
2023/04/07 04:40:14;;;;;;;23.97;11.43;;;;;-1.40;96175.00;;;;8316454;28;20221;-73
2023/04/07 04:44:17;;;;;;;22.67;11.50;;;;;-1.50;96179.00;;;;8315965;28;20198;-71
2023/04/07 04:48:21;;;;;;;24.97;11.53;;;;;-1.50;96172.00;;;;8310642;28;20202;-72
2023/04/07 04:52:24;;;;;;;23.07;11.87;;;;;-1.50;96173.00;;;;8310567;28;20229;-71
2023/04/07 04:56:32;;;;;;;27.17;12.30;;;;;-1.40;96174.00;;;;8309005;28;20593;-73
2023/04/07 05:00:35;;;;;;;28.97;12.63;;;;;-1.40;96171.00;;;;8311810;28;20237;-73
2023/04/07 05:04:39;;;;;;;27.50;13.20;;;;;-1.30;96170.00;;;;8311451;28;20233;-72
2023/04/07 05:08:42;;;;;;;25.53;12.53;;;;;-1.10;96177.00;;;;8310521;28;20255;-74
2023/04/07 05:12:45;;;;;;;25.27;13.10;;;;;-1.00;96181.00;;;;8290994;28;20245;-72
2023/04/07 05:16:50;;;;;;;23.20;11.57;;;;;-0.90;96174.00;;;;8319522;28;20559;-71
2023/04/07 05:20:54;;;;;;;27.23;11.80;;;;;-0.80;96179.00;;;;8319614;28;20978;-72
2023/04/07 05:24:59;;;;;;;24.13;12.33;;;;;-0.70;96179.00;;;;8321387;28;20198;-70
2023/04/07 05:29:05;;;;;;;25.67;12.53;;;;;-0.50;96178.00;;;;8315100;28;20198;-71
2023/04/07 05:33:08;;;;;;;29.70;13.60;;;;;-0.40;96181.00;;;;8321022;28;20226;-71
2023/04/07 05:37:14;;;;;;;24.70;12.30;;;;;-0.20;96184.00;;;;8317373;28;20288;-70
2023/04/07 05:41:19;;;;;;;25.50;12.13;;;;;0.00;96183.00;;;;8317093;28;20235;-70
2023/04/07 05:45:25;;;;;;;27.53;12.23;;;;;0.20;96171.00;;;;8319982;28;20251;-72
2023/04/07 05:49:27;;;;;;;23.10;11.93;;;;;0.40;96165.00;;;;8283470;28;20205;-73
2023/04/07 05:53:33;;;;;;;28.40;12.43;;;;;0.60;96169.00;;;;8312967;28;20635;-71
2023/04/07 05:57:39;;;;;;;21.23;11.97;;;;;0.90;96179.00;;;;8320719;28;20233;-71
2023/04/07 06:01:42;;;;;;;29.03;13.07;;;;;1.10;96182.00;;;;8315597;28;20230;-69
2023/04/07 06:05:47;;;;;;;24.83;11.63;;;;;1.30;96181.00;;;;8315188;28;20289;-69
2023/04/07 06:09:51;;;;;;;22.93;12.03;;;;;1.60;96171.00;;;;8318270;28;20227;-71
2023/04/07 06:13:53;;;;;;;21.60;11.67;;;;;1.80;96183.00;;;;8315592;28;20722;-72
2023/04/07 06:17:57;;;;;;;19.77;11.27;;;;;2.00;96184.00;;;;8317181;28;20215;-70
2023/04/07 06:22:03;;;;;;;24.10;12.50;;;;;2.20;96194.00;;;;8315072;28;20646;-71
2023/04/07 06:26:11;;;;;;;20.53;11.20;;;;;2.40;96197.00;;;;8318217;28;20198;-71
2023/04/07 06:30:16;;;;;;;17.60;10.63;;;;;2.50;96203.00;;;;8317127;28;20554;-72
2023/04/07 06:34:19;;;;;;;21.57;12.03;;;;;2.70;96193.00;;;;8318366;28;20242;-74
2023/04/07 06:38:23;;;;;;;23.60;12.07;;;;;2.90;96191.00;;;;8319237;28;20205;-74
2023/04/07 06:42:28;;;;;;;24.60;11.67;;;;;3.20;96185.00;;;;8317944;28;20686;-72
2023/04/07 06:46:31;;;;;;;22.03;11.63;;;;;3.40;96191.00;;;;8314092;28;20220;-72
2023/04/07 06:50:37;;;;;;;22.23;11.73;;;;;3.70;96187.00;;;;8315354;28;20580;-73
2023/04/07 06:54:40;;;;;;;20.33;11.43;;;;;3.90;96196.00;;;;8318506;28;20232;-70
2023/04/07 06:58:47;;;;;;;22.67;11.53;;;;;4.20;96190.00;;;;8313353;28;20205;-74
2023/04/07 07:02:50;;;;;;;16.97;10.60;;;;;4.50;96193.00;;;;8312544;28;20243;-74
2023/04/07 07:06:54;;;;;;;20.83;11.00;;;;;4.70;96188.00;;;;8319345;28;20189;-75
2023/04/07 07:10:57;;;;;;;18.07;10.87;;;;;5.00;96187.00;;;;8318555;28;20226;-75
2023/04/07 07:15:04;;;;;;;17.57;10.47;;;;;5.30;96195.00;;;;8313887;28;20239;-75
2023/04/07 07:19:08;;;;;;;17.87;10.47;;;;;5.70;96200.00;;;;8315152;28;20255;-75
2023/04/07 07:23:13;;;;;;;18.30;10.20;;;;;6.10;96204.00;;;;8317742;28;20639;-74
2023/04/07 07:27:16;;;;;;;18.07;10.33;;;;;6.40;96203.00;;;;8316472;28;20220;-72
2023/04/07 07:31:20;;;;;;;17.70;10.30;;;;;6.80;96205.00;;;;8319121;28;20230;-72
2023/04/07 07:35:26;;;;;;;20.43;11.43;;;;;7.20;96206.00;;;;8317282;28;20287;-72
2023/04/07 07:39:29;;;;;;;21.13;10.70;;;;;7.60;96206.00;;;;8312986;28;20198;-69
2023/04/07 07:43:34;;;;;;;17.63;10.87;;;;;8.20;96204.00;;;;8317242;28;20215;-71
2023/04/07 07:47:40;;;;;;;21.30;10.87;;;;;8.70;96190.00;;;;8316575;28;20208;-69
2023/04/07 07:51:44;;;;;;;17.60;9.97;;;;;9.00;96197.00;;;;8315903;28;20208;-69
2023/04/07 07:55:54;;;;;;;19.57;11.57;;;;;9.50;96199.00;;;;8314518;28;20303;-68
2023/04/07 07:59:58;;;;;;;19.57;11.07;;;;;9.90;96206.00;;;;8316767;28;20233;-66
2023/04/07 08:04:03;;;;;;;19.10;11.60;;;;;10.30;96205.00;;;;8315682;28;20225;-70
2023/04/07 08:08:06;;;;;;;19.42;10.98;;;;;10.80;96195.00;;;;8316249;28;20240;-68
2023/04/07 08:12:09;;;;;;;17.73;10.23;;;;;11.40;96200.00;;;;8315744;28;20205;-66
2023/04/07 08:16:13;;;;;;;18.58;10.88;;;;;12.40;96203.00;;;;8316375;28;20778;-68
2023/04/07 08:20:19;;;;;;;22.55;11.75;;;;;13.40;96204.00;;;;8316526;28;20300;-69
2023/04/07 08:24:22;;;;;;;21.85;12.40;;;;;14.10;96203.00;;;;8312465;28;20190;-69
2023/04/07 08:28:27;;;;;;;20.58;11.05;;;;;14.40;96205.00;;;;8315579;28;20656;-70
2023/04/07 08:32:37;;;;;;;18.05;11.48;;;;;14.20;96208.00;;;;8316848;28;20228;-69
2023/04/07 08:36:42;;;;;;;22.23;12.02;;;;;14.20;96201.00;;;;8316769;28;20695;-69
2023/04/07 08:40:48;;;;;;;18.75;12.00;;;;;14.40;96203.00;;;;8312101;28;20210;-70
2023/04/07 08:44:54;;;;;;;15.90;10.95;;;;;15.10;96192.00;;;;8314232;28;20209;-69
2023/04/07 08:48:57;;;;;;;25.45;14.00;;;;;15.50;96195.00;;;;8316842;28;20208;-69
2023/04/07 08:53:11;;;;;;;20.30;12.30;;;;;15.80;96198.00;;;;8316553;28;20275;-69
2023/04/07 08:57:15;;;;;;;16.85;11.02;;;;;15.90;96193.00;;;;8312604;28;20220;-67
2023/04/07 09:01:19;;;;;;;17.67;11.18;;;;;16.40;96202.00;;;;8314206;28;20634;-68
2023/04/07 09:05:24;;;;;;;17.52;11.90;;;;;16.60;96200.00;;;;8312062;28;20289;-68
2023/04/07 09:09:29;;;;;;;18.95;11.50;;;;;16.90;96197.00;;;;8316478;28;20193;-68
2023/04/07 09:13:32;;;;;;;20.13;11.70;;;;;17.20;96198.00;;;;8313036;28;20235;-68
2023/04/07 09:17:35;;;;;;;18.90;11.55;;;;;17.70;96200.00;;;;8317057;28;20686;-68
2023/04/07 09:21:48;;;;;;;21.85;12.60;;;;;18.00;96201.00;;;;8321026;28;20201;-68
2023/04/07 09:25:58;;;;;;;19.77;11.20;;;;;18.30;96205.00;;;;8322234;28;20197;-68
2023/04/07 09:30:11;;;;;;;18.33;11.88;;;;;18.50;96200.00;;;;8316710;28;20193;-68
2023/04/07 09:34:34;;;;;;;19.58;11.77;;;;;18.80;96200.00;;;;8322930;28;20746;-68
2023/04/07 09:38:38;;;;;;;18.88;10.63;;;;;18.90;96199.00;;;;8308560;28;20205;-69
2023/04/07 09:42:47;;;;;;;18.00;11.93;;;;;18.80;96200.00;;;;8321581;28;20675;-69
2023/04/07 09:46:51;;;;;;;20.30;12.00;;;;;18.90;96197.00;;;;8317757;28;20194;-69
2023/04/07 09:51:06;;;;;;;17.83;11.48;;;;;19.00;96191.00;;;;8320533;28;20232;-69
2023/04/07 09:55:09;;;;;;;15.75;11.35;;;;;18.90;96191.00;;;;8316735;28;20248;-69
2023/04/07 09:59:15;;;;;;;16.38;11.18;;;;;19.10;96193.00;;;;8320656;28;20217;-70
2023/04/07 10:03:18;;;;;;;16.20;11.20;;;;;19.10;96190.00;;;;8318942;28;20229;-70
2023/04/07 10:07:22;;;;;;;21.20;11.63;;;;;19.00;96189.00;;;;8321297;28;20239;-69
2023/04/07 10:11:27;;;;;;;15.13;10.40;;;;;18.70;96187.00;;;;8319651;28;20201;-70
2023/04/07 10:15:32;;;;;;;17.63;10.88;;;;;18.90;96186.00;;;;8318676;28;20253;-70
2023/04/07 10:19:36;;;;;;;19.23;11.18;;;;;19.10;96186.00;;;;8318087;28;20547;-72
2023/04/07 10:23:57;;;;;;;15.20;10.63;;;;;18.80;96187.00;;;;8310349;28;20244;-70
2023/04/07 10:28:05;;;;;;;15.80;11.27;;;;;18.30;96175.00;;;;8318475;28;20201;-70
2023/04/07 10:32:09;;;;;;;17.02;11.13;;;;;18.40;96168.00;;;;8317827;28;20279;-70
2023/04/07 10:36:16;;;;;;;16.67;10.70;;;;;18.70;96176.00;;;;8319928;28;20225;-70
2023/04/07 10:40:33;;;;;;;14.80;10.60;;;;;19.00;96169.00;;;;8319413;28;20288;-69
2023/04/07 10:44:50;;;;;;;15.25;10.88;;;;;19.10;96182.00;;;;8314028;28;20201;-71
2023/04/07 10:53:23;;;;;;;18.23;11.38;;;;;20.10;96172.00;;;;8446542;27;20633;-72
2023/04/07 10:57:28;;;;;;;17.25;10.10;;;;;20.10;96173.00;;;;8446517;28;20195;-72
2023/04/07 11:01:33;;;;;;;15.30;10.05;;;;;19.30;96170.00;;;;8439177;28;20239;-72
2023/04/07 11:05:38;;;;;;;13.45;10.10;;;;;18.60;96170.00;;;;8423854;28;20203;-72
2023/04/07 11:09:47;;;;;;;14.32;10.20;;;;;17.70;96170.00;;;;8429805;28;20202;-72
2023/04/07 11:13:51;;;;;;;14.15;9.95;;;;;17.20;96167.00;;;;8427166;28;20235;-72
2023/04/07 11:18:36;;;;;;;14.63;10.52;;;;;16.80;96167.00;;;;8437023;28;20191;-71
2023/04/07 11:22:38;;;;;;;13.77;10.00;;;;;16.40;96166.00;;;;8430313;28;20242;-71
2023/04/07 11:26:51;;;;;;;17.25;10.07;;;;;16.30;96164.00;;;;8433609;28;20618;-72
2023/04/07 11:30:55;;;;;;;18.90;11.23;;;;;16.00;96152.00;;;;8429683;28;20270;-70
2023/04/07 11:34:58;;;;;;;19.15;10.52;;;;;15.70;96156.00;;;;8420148;28;20203;-70
2023/04/07 11:39:05;;;;;;;14.30;10.07;;;;;16.00;96156.00;;;;8426605;28;20191;-70
2023/04/07 11:43:22;;;;;;;14.55;10.30;;;;;16.00;96152.00;;;;8420464;28;20196;-70
2023/04/07 11:47:34;;;;;;;14.32;9.52;;;;;15.90;96148.00;;;;8426995;28;20188;-71
2023/04/07 11:51:37;;;;;;;14.55;9.70;;;;;16.20;96152.00;;;;8424397;28;20406;-70
2023/04/07 11:55:44;;;;;;;18.40;11.25;;;;;16.60;96147.00;;;;8427059;28;20196;-71
2023/04/07 11:59:50;;;;;;;16.48;10.43;;;;;16.60;96148.00;;;;8424181;28;20183;-71
2023/04/07 12:03:57;;;;;;;20.65;10.85;;;;;16.80;96150.00;;;;8410904;28;20672;-71
2023/04/07 12:08:01;;;;;;;19.83;11.32;;;;;16.90;96159.00;;;;8404566;28;20232;-71
2023/04/07 12:12:06;;;;;;;16.33;10.48;;;;;16.70;96158.00;;;;8404451;28;20602;-71
2023/04/07 12:16:13;;;;;;;17.15;10.95;;;;;16.60;96149.00;;;;8399334;28;20641;-71
2023/04/07 12:20:16;;;;;;;21.88;10.90;;;;;16.60;96151.00;;;;8400792;28;20208;-71
2023/04/07 12:24:31;;;;;;;17.23;10.27;;;;;16.60;96157.00;;;;8401149;28;20804;-73
2023/04/07 12:28:34;;;;;;;16.08;10.70;;;;;16.80;96159.00;;;;8399170;28;20890;-72
2023/04/07 12:32:38;;;;;;;19.55;10.95;;;;;17.00;96155.00;;;;8394941;28;20232;-72
2023/04/07 12:36:41;;;;;;;14.63;9.77;;;;;17.30;96153.00;;;;8399625;28;20633;-73
2023/04/07 12:40:44;;;;;;;16.63;10.32;;;;;17.60;96156.00;;;;8399631;28;20254;-72
2023/04/07 12:44:53;;;;;;;12.20;9.07;;;;;17.80;96150.00;;;;8398427;28;20208;-73
2023/04/07 12:48:57;;;;;;;14.68;10.35;;;;;17.80;96150.00;;;;8403324;28;20227;-73
2023/04/07 12:53:06;;;;;;;14.38;10.18;;;;;18.10;96154.00;;;;8398115;28;20826;-72
2023/04/07 12:57:09;;;;;;;14.77;10.02;;;;;18.30;96156.00;;;;8402611;28;20599;-72
2023/04/07 13:01:15;;;;;;;14.27;8.98;;;;;18.30;96150.00;;;;8399843;28;20227;-73
2023/04/07 13:05:23;;;;;;;14.05;9.40;;;;;18.40;96153.00;;;;8400857;28;20196;-73
2023/04/07 13:09:26;;;;;;;11.70;7.47;;;;;18.40;96147.00;;;;8395617;28;20188;-72
2023/04/07 13:13:30;;;;;;;12.30;8.57;;;;;18.40;96155.00;;;;8396949;28;20228;-72
2023/04/07 13:17:35;;;;;;;11.85;8.52;;;;;18.20;96158.00;;;;8392319;28;20242;-72
2023/04/07 13:21:46;;;;;;;13.38;9.13;;;;;18.00;96145.00;;;;8395189;28;20630;-72
2023/04/07 13:25:50;;;;;;;12.38;9.30;;;;;18.00;96140.00;;;;8394433;28;20196;-72
2023/04/07 13:29:52;;;;;;;12.80;9.20;;;;;18.10;96145.00;;;;8401627;28;20303;-72
2023/04/07 13:33:56;;;;;;;11.80;8.98;;;;;18.30;96134.00;;;;8397335;28;20227;-73
2023/04/07 13:38:03;;;;;;;12.25;8.68;;;;;18.50;96138.00;;;;8398348;28;20306;-72
2023/04/07 13:42:08;;;;;;;12.85;8.77;;;;;18.70;96139.00;;;;8400296;28;20200;-72
2023/04/07 13:46:16;;;;;;;12.07;8.45;;;;;19.10;96144.00;;;;8395748;28;20688;-72
2023/04/07 13:50:32;;;;;;;12.55;8.77;;;;;19.20;96137.00;;;;8390327;28;20204;-72
2023/04/07 13:54:37;;;;;;;14.15;9.18;;;;;19.30;96133.00;;;;8396581;28;20200;-72
2023/04/07 13:58:40;;;;;;;13.90;8.70;;;;;19.20;96130.00;;;;8395505;28;20250;-73
2023/04/07 14:02:47;;;;;;;17.35;9.90;;;;;19.30;96133.00;;;;8395933;28;21175;-73
2023/04/07 14:06:50;;;;;;;13.95;9.30;;;;;19.40;96139.00;;;;8392017;28;20196;-74
2023/04/07 14:10:59;;;;;;;12.82;8.82;;;;;19.40;96134.00;;;;8399625;28;20226;-73
2023/04/07 14:15:03;;;;;;;12.38;8.95;;;;;19.60;96132.00;;;;8391286;28;20192;-73
2023/04/07 14:19:06;;;;;;;13.27;8.90;;;;;19.70;96133.00;;;;8398897;28;20231;-73
2023/04/07 14:23:12;;;;;;;17.83;9.65;;;;;19.80;96133.00;;;;8406179;28;20195;-73
2023/04/07 14:27:23;;;;;;;10.15;8.15;;;;;19.90;96125.00;;;;8406715;28;20276;-72
2023/04/07 14:31:35;;;;;;;12.52;8.98;;;;;19.80;96127.00;;;;8407300;28;20333;-73
2023/04/07 14:35:40;;;;;;;11.27;8.48;;;;;19.90;96128.00;;;;8406400;28;20226;-73
2023/04/07 14:39:43;;;;;;;11.32;8.65;;;;;20.10;96132.00;;;;8408392;28;21041;-73
2023/04/07 14:44:11;;;;;;;13.20;9.00;;;;;20.20;96131.00;;;;8411502;28;20305;-73
2023/04/07 14:48:15;;;;;;;12.88;9.02;;;;;20.20;96135.00;;;;8408658;28;20664;-73
2023/04/07 14:52:21;;;;;;;14.93;8.63;;;;;20.60;96130.00;;;;8408599;28;20249;-74
2023/04/07 14:56:27;;;;;;;12.48;8.23;;;;;20.80;96123.00;;;;8407662;28;20203;-73
2023/04/07 15:00:31;;;;;;;11.07;8.43;;;;;20.80;96125.00;;;;8407489;28;20207;-73
2023/04/07 15:04:40;;;;;;;10.50;7.30;;;;;20.30;96122.00;;;;8410362;28;20263;-73
2023/04/07 15:08:43;;;;;;;16.83;9.52;;;;;19.50;96126.00;;;;8411066;28;20196;-73
2023/04/07 15:12:49;;;;;;;11.55;8.90;;;;;18.80;96124.00;;;;8399119;28;20229;-71
2023/04/07 15:16:53;;;;;;;12.68;8.57;;;;;18.50;96131.00;;;;8403772;28;20287;-73
2023/04/07 15:20:57;;;;;;;11.60;8.85;;;;;18.60;96131.00;;;;8400538;28;20761;-73
2023/04/07 15:25:02;;;;;;;12.27;8.80;;;;;18.80;96131.00;;;;8402843;28;20261;-73
2023/04/07 15:29:05;;;;;;;13.45;8.70;;;;;19.00;96123.00;;;;8405359;28;20662;-73
2023/04/07 15:33:11;;;;;;;14.38;8.82;;;;;19.30;96126.00;;;;8390107;28;20262;-72
2023/04/07 15:37:16;;;;;;;10.57;8.20;;;;;19.30;96130.00;;;;8400380;28;20199;-74
2023/04/07 15:41:22;;;;;;;10.55;7.90;;;;;19.50;96134.00;;;;8403773;28;20207;-73
2023/04/07 15:45:30;;;;;;;10.27;8.63;;;;;19.60;96131.00;;;;8403019;28;20397;-73
2023/04/07 15:49:37;;;;;;;11.90;8.98;;;;;19.60;96130.00;;;;8404324;28;20696;-74
2023/04/07 15:53:42;;;;;;;11.82;9.00;;;;;19.20;96135.00;;;;8406581;28;20596;-74
2023/04/07 15:57:52;;;;;;;14.52;8.35;;;;;18.40;96131.00;;;;8406830;28;20203;-74
2023/04/07 16:01:55;;;;;;;9.90;8.13;;;;;18.20;96133.00;;;;8401533;28;20911;-74
2023/04/07 16:06:00;;;;;;;10.93;7.75;;;;;18.20;96138.00;;;;8403321;28;20549;-72
2023/04/07 16:10:08;;;;;;;11.30;8.43;;;;;18.10;96135.00;;;;8402156;28;20200;-73
2023/04/07 16:14:10;;;;;;;10.18;7.50;;;;;17.60;96135.00;;;;8403400;28;20671;-73
2023/04/07 16:18:13;;;;;;;11.07;8.52;;;;;17.40;96129.00;;;;8405882;28;20657;-72
2023/04/07 16:22:22;;;;;;;11.77;7.97;;;;;17.40;96129.00;;;;8397088;28;20199;-73
2023/04/07 16:26:31;;;;;;;11.10;7.47;;;;;17.20;96137.00;;;;8394520;28;20215;-72
2023/04/07 16:30:35;;;;;;;14.45;7.95;;;;;17.30;96141.00;;;;8390043;28;20235;-74
2023/04/07 16:34:37;;;;;;;10.80;7.55;;;;;17.00;96138.00;;;;8400064;28;20230;-73
2023/04/07 16:38:42;;;;;;;9.88;8.13;;;;;16.90;96147.00;;;;8393806;28;20291;-73
2023/04/07 16:42:46;;;;;;;9.93;7.60;;;;;17.10;96147.00;;;;8400515;28;20223;-74
2023/04/07 16:46:49;;;;;;;11.52;8.10;;;;;16.90;96152.00;;;;8394065;28;20192;-75
2023/04/07 16:50:52;;;;;;;10.57;7.28;;;;;16.60;96155.00;;;;8397838;28;20251;-74
2023/04/07 16:54:57;;;;;;;11.35;7.18;;;;;16.20;96155.00;;;;8399713;28;20292;-74
2023/04/07 16:59:00;;;;;;;14.18;8.32;;;;;15.80;96166.00;;;;8396838;28;20232;-74
2023/04/07 17:03:09;;;;;;;10.05;7.43;;;;;15.50;96168.00;;;;8395771;28;20223;-74
2023/04/07 17:07:13;;;;;;;8.77;6.50;;;;;15.10;96175.00;;;;8402145;28;20211;-73
2023/04/07 17:11:19;;;;;;;8.95;7.03;;;;;14.70;96176.00;;;;8390429;28;20196;-73
2023/04/07 17:15:23;;;;;;;10.43;6.55;;;;;14.40;96178.00;;;;8397091;28;20303;-75
2023/04/07 17:19:32;;;;;;;9.18;6.93;;;;;14.10;96176.00;;;;8395673;28;20188;-75
2023/04/07 17:23:37;;;;;;;10.27;6.80;;;;;13.70;96177.00;;;;8396820;28;20232;-75
2023/04/07 17:27:41;;;;;;;8.15;6.20;;;;;13.30;96177.00;;;;8395826;28;20809;-75
2023/04/07 17:31:45;;;;;;;8.27;6.72;;;;;12.90;96188.00;;;;8392027;28;20242;-75
2023/04/07 17:35:49;;;;;;;9.20;6.60;;;;;12.50;96179.00;;;;8398215;28;20207;-75
2023/04/07 17:39:52;;;;;;;10.10;7.18;;;;;12.20;96189.00;;;;8400052;28;20207;-74
2023/04/07 17:43:56;;;;;;;8.15;6.47;;;;;11.90;96191.00;;;;8400486;28;20604;-75
2023/04/07 17:48:03;;;;;;;8.20;6.45;;;;;11.60;96190.00;;;;8390984;28;20195;-74
2023/04/07 17:52:07;;;;;;;10.35;6.93;;;;;11.20;96190.00;;;;8382686;28;20204;-75
2023/04/07 17:56:11;;;;;;;12.32;7.50;;;;;10.90;96191.00;;;;8387460;28;20196;-73
2023/04/07 18:00:16;;;;;;;11.50;6.97;;;;;10.50;96200.00;;;;8392444;28;20202;-73
2023/04/07 18:04:19;;;;;;;9.27;6.32;;;;;10.20;96211.00;;;;8389493;28;20799;-74
2023/04/07 18:08:22;;;;;;;10.45;6.57;;;;;10.10;96198.00;;;;8393393;28;20326;-73
2023/04/07 18:12:26;;;;;;;10.55;6.53;;;;;10.10;96210.00;;;;8385957;28;20262;-73
2023/04/07 18:16:31;;;;;;;8.77;6.28;;;;;9.90;96214.00;;;;8395269;28;20224;-72
2023/04/07 18:20:35;;;;;;;9.05;6.28;;;;;9.70;96220.00;;;;8393129;28;20200;-72
2023/04/07 18:24:40;;;;;;;7.07;5.80;;;;;9.50;96234.00;;;;8392150;28;20199;-72
2023/04/07 18:28:45;;;;;;;9.57;6.30;;;;;9.50;96228.00;;;;8389883;28;20922;-72
2023/04/07 18:32:53;;;;;;;7.67;5.23;;;;;9.20;96241.00;;;;8388413;28;20228;-71
2023/04/07 18:36:56;;;;;;;7.13;5.03;;;;;9.20;96237.00;;;;8393357;28;20219;-69
2023/04/07 18:41:01;;;;;;;5.90;4.60;;;;;9.10;96245.00;;;;8393062;28;20260;-71
2023/04/07 18:45:08;;;;;;;9.85;5.43;;;;;9.00;96248.00;;;;8392749;28;20748;-71
2023/04/07 18:49:14;;;;;;;5.53;4.60;;;;;8.80;96246.00;;;;8396986;28;20224;-71
2023/04/07 18:57:39;;;;;;;7.03;5.27;;;;;8.50;96264.00;;;;8399837;28;20200;-70
2023/04/07 19:01:42;;;;;;;10.60;6.17;;;;;8.50;96267.00;;;;8386544;28;20310;-71
2023/04/07 19:05:47;;;;;;;10.10;6.13;;;;;8.40;96263.00;;;;8394963;28;20200;-71
2023/04/07 19:09:55;;;;;;;7.50;5.90;;;;;8.40;96264.00;;;;8390332;28;20282;-72
2023/04/07 19:13:59;;;;;;;8.87;5.97;;;;;8.30;96265.00;;;;8397676;28;20238;-70
2023/04/07 19:18:06;;;;;;;7.27;5.30;;;;;8.40;96264.00;;;;8405002;28;20200;-70
2023/04/07 19:22:13;;;;;;;7.90;5.30;;;;;8.40;96274.00;;;;8394237;28;20192;-70
2023/04/07 19:26:16;;;;;;;10.13;5.83;;;;;8.50;96269.00;;;;8395959;28;20242;-71
2023/04/07 19:30:19;;;;;;;9.60;6.07;;;;;8.50;96274.00;;;;8403871;28;20257;-71
2023/04/07 19:34:24;;;;;;;9.52;5.90;;;;;8.50;96287.00;;;;8407609;28;20442;-71
2023/04/07 19:38:28;;;;;;;9.52;6.10;;;;;8.50;96280.00;;;;8399149;28;20195;-70
2023/04/07 19:42:32;;;;;;;10.02;6.22;;;;;8.50;96283.00;;;;8397672;28;20230;-71
2023/04/07 19:46:35;;;;;;;13.53;6.90;;;;;8.40;96291.00;;;;8397654;28;20203;-71
2023/04/07 19:50:42;;;;;;;12.70;7.13;;;;;8.40;96291.00;;;;8402091;28;20233;-71
2023/04/07 19:54:46;;;;;;;9.47;6.70;;;;;8.30;96289.00;;;;8395481;28;20227;-70
2023/04/07 19:58:49;;;;;;;13.10;7.83;;;;;8.20;96293.00;;;;8400262;28;20196;-72
2023/04/07 20:02:55;;;;;;;14.80;8.40;;;;;8.20;96297.00;;;;8399656;28;20560;-70
2023/04/07 20:06:58;;;;;;;13.13;8.03;;;;;8.00;96292.00;;;;8401422;28;20203;-71
2023/04/07 20:11:09;;;;;;;15.60;7.87;;;;;7.90;96290.00;;;;8397842;28;20195;-71
2023/04/07 20:15:14;;;;;;;17.13;8.30;;;;;7.80;96288.00;;;;8393931;28;20227;-71
2023/04/07 20:19:22;;;;;;;14.90;9.10;;;;;7.70;96303.00;;;;8393756;28;20199;-71